KNYG

Quantico MCAF / Turner Field Airport

Quantico, Virginia, USA
METAR KNYG 231456Z 30004KT 10SM BKN033 BKN055 BKN250 26/19 A3001 RMK AO2 SLP164 T02610194 52006
Observed Flight Rules
May-23 @ 14:56 UTC (15 minutes ago) Visual Flight Rules
Wind Visibility Clouds
300° at 4 knots 10 miles
  • Broken at 3,300' AGL
  • Broken at 5,500' AGL
  • Broken at 25,000' AGL
Temperatures Readings
Current 26°C / 79°F
Dewpoint 19°C / 66°F
Humidity 65%
Altimeter 30.01" Hg
Pressure 1016.4 hPa
Elevation 4
METAR KNYG 231456Z 30004KT 10SM BKN033 BKN055 BKN250 26/19 A3001 RMK AO2 SLP164 T02610194 52006
Observed Flight Rules
May-23 @ 14:56 UTC
(15 minutes ago)
VFR
Wind Visibility
300° at 4 knots 10 miles
Clouds
  • Broken at 3,300' AGL
  • Broken at 5,500' AGL
  • Broken at 25,000' AGL
Temperature Dewpoint
26°C / 79°F 19°C / 66°F
Humidity Altimeter Pressure
65% 30.01" Hg 1016.4 hPa